Time;durP1;ratioP1;P1;durP2;ratioP2;P2;SDS_P1;SDS_P2;PMS_P1;PMS_P2;Temp;Humidity;BMP_temperature;BMP_pressure;BME280_temperature;BME280_humidity;BME280_pressure;Samples;Min_cycle;Max_cycle;Signal;HPM_P1;HPM_P2
2021/05/25 00:00:00;;;;;;;0.10;0.10;;;11.10;68.00;;;;;;5116557;28;20544;-66
2021/05/25 00:02:27;;;;;;;0.00;0.00;;;11.10;68.00;;;;;;5116623;28;20043;-66
2021/05/25 00:04:53;;;;;;;0.10;0.10;;;11.00;68.00;;;;;;5116144;28;20043;-66
2021/05/25 00:07:19;;;;;;;0.00;0.00;;;11.00;68.10;;;;;;5114894;28;20048;-66
2021/05/25 00:09:46;;;;;;;0.00;0.00;;;11.00;68.20;;;;;;5116726;28;20128;-66
2021/05/25 00:12:12;;;;;;;0.00;0.00;;;11.00;68.30;;;;;;5116530;28;20048;-66
2021/05/25 00:14:39;;;;;;;0.00;0.00;;;11.00;68.30;;;;;;5115760;28;20048;-69
2021/05/25 00:17:05;;;;;;;0.00;0.00;;;10.90;68.30;;;;;;5115901;28;20126;-66
2021/05/25 00:19:32;;;;;;;0.00;0.00;;;10.90;68.30;;;;;;5126358;27;20041;-66
2021/05/25 00:21:58;;;;;;;0.00;0.00;;;10.90;68.40;;;;;;5116421;28;20058;-66
2021/05/25 00:24:24;;;;;;;0.00;0.00;;;10.90;68.40;;;;;;5115649;28;20062;-66
2021/05/25 00:26:51;;;;;;;0.00;0.00;;;10.90;68.40;;;;;;5115912;28;20055;-66
2021/05/25 00:29:17;;;;;;;0.00;0.00;;;10.90;68.40;;;;;;5118475;27;20043;-66
2021/05/25 00:31:43;;;;;;;0.00;0.00;;;10.90;68.50;;;;;;5126081;27;20044;-66
2021/05/25 00:34:10;;;;;;;0.10;0.10;;;10.90;68.60;;;;;;5115929;28;20678;-65
2021/05/25 00:36:36;;;;;;;0.00;0.00;;;10.90;68.50;;;;;;5115915;28;20160;-66
2021/05/25 00:39:04;;;;;;;0.00;0.00;;;10.80;68.50;;;;;;5115903;28;20075;-66
2021/05/25 00:41:31;;;;;;;0.05;0.05;;;10.80;68.60;;;;;;5115981;28;20050;-66
2021/05/25 00:43:58;;;;;;;0.00;0.00;;;10.80;68.60;;;;;;5115739;28;20485;-66
2021/05/25 00:46:24;;;;;;;0.00;0.00;;;10.80;68.70;;;;;;5115551;28;20165;-66
2021/05/25 00:48:51;;;;;;;0.10;0.10;;;10.80;68.70;;;;;;5115887;28;20044;-66
2021/05/25 00:51:17;;;;;;;0.00;0.00;;;10.80;69.70;;;;;;5115425;28;20043;-67
2021/05/25 00:53:44;;;;;;;0.00;0.00;;;10.80;68.80;;;;;;5115570;28;20130;-66
2021/05/25 00:56:11;;;;;;;0.10;0.10;;;10.80;68.90;;;;;;5113702;28;20048;-66
2021/05/25 00:58:38;;;;;;;0.00;0.00;;;10.70;68.90;;;;;;5115342;28;20047;-66
2021/05/25 01:01:04;;;;;;;0.00;0.00;;;10.70;69.00;;;;;;5115207;28;20052;-66
2021/05/25 01:03:31;;;;;;;0.10;0.10;;;10.70;69.10;;;;;;5115482;28;20058;-66
2021/05/25 01:05:57;;;;;;;0.10;0.10;;;10.70;69.10;;;;;;5115327;28;20104;-66
2021/05/25 01:08:24;;;;;;;0.10;0.10;;;10.70;69.20;;;;;;5115432;28;20483;-66
2021/05/25 01:10:57;;;;;;;0.03;0.03;;;10.70;69.30;;;;;;5115301;28;20044;-66
2021/05/25 01:13:27;;;;;;;0.00;0.00;;;10.70;69.30;;;;;;5113738;28;20518;-66
2021/05/25 01:15:54;;;;;;;0.00;0.00;;;10.70;69.40;;;;;;5115190;28;20039;-66
2021/05/25 01:18:20;;;;;;;0.03;0.03;;;10.70;69.50;;;;;;5115200;28;20040;-66
2021/05/25 01:20:49;;;;;;;0.10;0.10;;;10.60;69.40;;;;;;5115331;28;20132;-66
2021/05/25 01:23:16;;;;;;;0.10;0.10;;;10.60;69.50;;;;;;5114943;28;20100;-66
2021/05/25 01:25:48;;;;;;;0.00;0.00;;;10.70;69.60;;;;;;5114615;28;20097;-66
2021/05/25 01:28:16;;;;;;;0.00;0.00;;;10.60;69.60;;;;;;5114794;28;20558;-66
2021/05/25 01:30:46;;;;;;;0.00;0.00;;;10.60;69.70;;;;;;5114899;28;20782;-66
2021/05/25 01:33:13;;;;;;;0.10;0.10;;;10.60;69.80;;;;;;5114674;28;20134;-66
2021/05/25 01:35:39;;;;;;;0.03;0.03;;;10.60;69.90;;;;;;5114623;28;20474;-66
2021/05/25 01:38:08;;;;;;;0.00;0.00;;;10.60;70.00;;;;;;5114970;28;20163;-66
2021/05/25 01:40:36;;;;;;;0.10;0.10;;;10.60;70.10;;;;;;5114559;28;20072;-66
2021/05/25 01:43:03;;;;;;;0.10;0.10;;;10.60;70.20;;;;;;5114631;28;20172;-66
2021/05/25 01:45:31;;;;;;;0.10;0.10;;;10.60;70.30;;;;;;5114415;28;20086;-66
2021/05/25 01:48:00;;;;;;;0.03;0.03;;;10.60;70.40;;;;;;5114502;28;20051;-66
2021/05/25 01:50:27;;;;;;;0.00;0.00;;;10.50;70.50;;;;;;5114762;28;20040;-66
2021/05/25 01:53:03;;;;;;;0.00;0.00;;;10.50;70.60;;;;;;5114201;28;20044;-66
2021/05/25 01:55:47;;;;;;;0.00;0.00;;;10.50;70.70;;;;;;5114554;28;20176;-66
2021/05/25 01:58:18;;;;;;;0.10;0.10;;;10.50;70.80;;;;;;5114345;28;20184;-66
2021/05/25 02:00:48;;;;;;;;;;;10.50;71.20;;;;;;5114941;28;20134;-66
2021/05/25 02:03:14;;;;;;;0.00;0.00;;;10.40;71.30;;;;;;5100113;28;19940;-66
2021/05/25 02:05:41;;;;;;;0.05;0.05;;;10.50;71.20;;;;;;5114214;28;20134;-66
2021/05/25 02:08:09;;;;;;;0.10;0.10;;;10.40;71.30;;;;;;5114227;28;20185;-66
2021/05/25 02:10:37;;;;;;;0.10;0.10;;;10.40;71.40;;;;;;5114311;28;20100;-66
2021/05/25 02:13:27;;;;;;;0.10;0.10;;;10.40;71.70;;;;;;5112714;28;20048;-66
2021/05/25 02:15:55;;;;;;;0.00;0.00;;;10.40;71.90;;;;;;5121600;27;20134;-66
2021/05/25 02:18:24;;;;;;;0.10;0.10;;;10.40;72.00;;;;;;5113762;28;20173;-66
2021/05/25 02:20:53;;;;;;;0.00;0.00;;;10.40;72.10;;;;;;5114178;28;20079;-66
2021/05/25 02:23:20;;;;;;;0.10;0.10;;;10.30;72.10;;;;;;5117750;27;20477;-66
2021/05/25 02:25:47;;;;;;;0.00;0.00;;;10.30;72.50;;;;;;5113681;27;20566;-66
2021/05/25 02:28:14;;;;;;;0.10;0.10;;;10.30;72.50;;;;;;5114008;28;20583;-66
2021/05/25 02:30:42;;;;;;;0.00;0.00;;;10.30;72.60;;;;;;5113553;28;20131;-66
2021/05/25 02:33:14;;;;;;;0.10;0.10;;;10.30;72.60;;;;;;5113415;28;20123;-66
2021/05/25 02:35:42;;;;;;;0.10;0.10;;;10.30;72.70;;;;;;5113591;28;20054;-66
2021/05/25 02:38:11;;;;;;;0.10;0.10;;;10.30;72.70;;;;;;5114017;28;20134;-66
2021/05/25 02:40:37;;;;;;;0.00;0.00;;;10.30;72.80;;;;;;5113143;28;20047;-66
2021/05/25 02:43:04;;;;;;;0.10;0.10;;;10.30;72.90;;;;;;5113474;28;20519;-66
2021/05/25 02:45:31;;;;;;;0.10;0.10;;;10.30;73.00;;;;;;5113357;28;20130;-66
2021/05/25 02:47:58;;;;;;;0.10;0.10;;;10.30;73.00;;;;;;5113109;28;20043;-66
2021/05/25 02:50:25;;;;;;;0.10;0.10;;;10.30;73.00;;;;;;5113350;28;20054;-66
2021/05/25 02:52:53;;;;;;;0.10;0.10;;;10.20;73.10;;;;;;5113441;28;20075;-66
2021/05/25 02:55:24;;;;;;;0.08;0.08;;;10.30;73.20;;;;;;5113041;28;20173;-66
2021/05/25 02:57:51;;;;;;;0.10;0.10;;;10.30;73.20;;;;;;5113079;28;20126;-66
2021/05/25 03:00:26;;;;;;;0.03;0.03;;;10.30;73.20;;;;;;5113144;28;20479;-66
2021/05/25 03:02:52;;;;;;;0.10;0.10;;;10.30;73.20;;;;;;5113286;28;20039;-66
2021/05/25 03:05:22;;;;;;;0.10;0.10;;;10.30;73.40;;;;;;5112999;28;20503;-66
2021/05/25 03:07:50;;;;;;;0.00;0.00;;;10.20;73.40;;;;;;5113262;28;20126;-66
2021/05/25 03:10:18;;;;;;;0.10;0.10;;;10.20;73.50;;;;;;5112950;28;20122;-66
2021/05/25 03:12:45;;;;;;;0.05;0.05;;;10.20;73.60;;;;;;5112553;28;20200;-66
2021/05/25 03:15:15;;;;;;;0.00;0.00;;;10.20;73.60;;;;;;5112938;28;20172;-66
2021/05/25 03:17:41;;;;;;;0.05;0.05;;;10.20;73.70;;;;;;5111940;28;20532;-65
2021/05/25 03:20:09;;;;;;;0.10;0.10;;;10.20;73.80;;;;;;5112909;28;20745;-66
2021/05/25 03:22:36;;;;;;;0.10;0.10;;;10.20;73.90;;;;;;5112962;28;20399;-66
2021/05/25 03:25:05;;;;;;;0.10;0.10;;;10.20;73.90;;;;;;5112642;28;20040;-66
2021/05/25 03:27:31;;;;;;;0.10;0.10;;;10.20;74.10;;;;;;5120565;27;20122;-66
2021/05/25 03:29:58;;;;;;;0.03;0.03;;;10.20;74.10;;;;;;5112728;28;20044;-66
2021/05/25 03:32:24;;;;;;;0.00;0.00;;;10.10;74.20;;;;;;5093928;28;20098;-66
2021/05/25 03:34:50;;;;;;;0.00;0.00;;;10.10;74.20;;;;;;5112870;28;20104;-66
2021/05/25 03:37:17;;;;;;;0.10;0.10;;;10.10;74.30;;;;;;5112688;28;20049;-66
2021/05/25 03:39:43;;;;;;;0.00;0.00;;;10.10;74.40;;;;;;5112783;28;20206;-66
2021/05/25 03:42:10;;;;;;;0.10;0.10;;;10.10;74.50;;;;;;5112876;28;20056;-66
2021/05/25 03:44:36;;;;;;;0.10;0.10;;;10.10;74.50;;;;;;5112272;28;20372;-66
2021/05/25 03:47:02;;;;;;;0.10;0.10;;;10.10;74.50;;;;;;5112613;28;20119;-66
2021/05/25 03:49:28;;;;;;;0.10;0.10;;;10.10;74.70;;;;;;5112172;28;20616;-66
2021/05/25 03:51:55;;;;;;;0.10;0.10;;;10.10;74.70;;;;;;5112929;28;20122;-66
2021/05/25 03:54:58;;;;;;;0.10;0.10;;;10.10;74.70;;;;;;5112216;28;20059;-66
2021/05/25 03:58:47;;;;;;;0.10;0.10;;;10.10;74.80;;;;;;5108409;28;20126;-66
2021/05/25 04:00:00;;;;;;;0.05;0.05;;;10.00;74.80;;;;;;5099544;28;20083;-66
2021/05/25 04:02:26;;;;;;;0.03;0.03;;;10.00;74.80;;;;;;5112314;28;20440;-66
2021/05/25 04:04:52;;;;;;;0.10;0.10;;;10.00;75.00;;;;;;5112340;28;20040;-66
2021/05/25 04:07:19;;;;;;;0.10;0.10;;;10.00;75.00;;;;;;5112485;28;20126;-66
2021/05/25 04:09:45;;;;;;;0.10;0.10;;;10.00;75.10;;;;;;5112400;28;20196;-66
2021/05/25 04:12:11;;;;;;;0.10;0.10;;;10.00;75.10;;;;;;5112709;28;20535;-66
2021/05/25 04:14:38;;;;;;;0.10;0.10;;;10.00;75.30;;;;;;5111726;28;20101;-66
2021/05/25 04:17:04;;;;;;;0.00;0.00;;;9.90;75.40;;;;;;5112653;28;20469;-66
2021/05/25 04:19:31;;;;;;;0.10;0.10;;;10.00;75.60;;;;;;5112310;28;20463;-66
2021/05/25 04:21:57;;;;;;;0.00;0.00;;;9.90;75.60;;;;;;5112095;28;20065;-66
2021/05/25 04:24:23;;;;;;;0.10;0.10;;;9.90;75.70;;;;;;5112301;28;20048;-66
2021/05/25 04:26:50;;;;;;;0.10;0.10;;;9.90;75.80;;;;;;5112358;28;20055;-66
2021/05/25 04:29:16;;;;;;;0.00;0.00;;;9.80;75.80;;;;;;5113807;28;20169;-66
2021/05/25 04:31:42;;;;;;;0.00;0.00;;;9.90;76.00;;;;;;5116046;28;20055;-66
2021/05/25 04:34:09;;;;;;;0.10;0.10;;;9.90;76.00;;;;;;5115859;28;20096;-66
2021/05/25 04:36:35;;;;;;;0.08;0.08;;;9.90;76.10;;;;;;5115578;28;20090;-66
2021/05/25 04:39:02;;;;;;;0.00;0.00;;;9.90;76.10;;;;;;5116098;28;20174;-66
2021/05/25 04:41:28;;;;;;;0.10;0.10;;;9.90;76.20;;;;;;5115530;28;20162;-66
2021/05/25 04:43:54;;;;;;;0.10;0.10;;;9.90;76.40;;;;;;5096631;28;20044;-65
2021/05/25 04:46:21;;;;;;;0.10;0.10;;;9.90;76.40;;;;;;5115677;28;20096;-66
2021/05/25 04:48:47;;;;;;;0.10;0.10;;;9.90;76.30;;;;;;5115642;28;20123;-66
2021/05/25 04:51:13;;;;;;;0.00;0.00;;;9.90;76.40;;;;;;5115479;28;20039;-66
2021/05/25 04:53:40;;;;;;;0.00;0.00;;;9.90;76.40;;;;;;5115777;28;20122;-66
2021/05/25 04:56:06;;;;;;;0.10;0.10;;;9.90;76.40;;;;;;5115582;28;20044;-66
2021/05/25 04:58:32;;;;;;;0.00;0.00;;;9.90;76.40;;;;;;5115292;28;20043;-66
2021/05/25 05:00:59;;;;;;;0.00;0.00;;;9.90;76.50;;;;;;5115329;28;20058;-66
2021/05/25 05:03:26;;;;;;;0.00;0.00;;;9.90;76.40;;;;;;5115445;28;20612;-66
2021/05/25 05:05:54;;;;;;;0.10;0.10;;;9.90;76.40;;;;;;5118870;27;20040;-66
2021/05/25 05:08:20;;;;;;;0.00;0.00;;;9.90;76.50;;;;;;5107475;28;20077;-66
2021/05/25 05:10:47;;;;;;;0.10;0.10;;;9.90;76.50;;;;;;5113564;28;20096;-66
2021/05/25 05:13:13;;;;;;;0.10;0.10;;;9.90;76.50;;;;;;5113862;28;20563;-66
2021/05/25 05:15:39;;;;;;;0.10;0.10;;;10.00;76.50;;;;;;5113992;28;20134;-66
2021/05/25 05:18:06;;;;;;;0.10;0.10;;;10.00;76.70;;;;;;5114319;28;20082;-66
2021/05/25 05:20:32;;;;;;;0.10;0.10;;;10.00;76.70;;;;;;5113329;28;20455;-66
2021/05/25 05:22:58;;;;;;;0.10;0.10;;;10.00;76.70;;;;;;5113862;28;20184;-66
2021/05/25 05:25:25;;;;;;;0.00;0.00;;;10.00;76.80;;;;;;5113361;28;20126;-66
2021/05/25 05:27:51;;;;;;;0.10;0.10;;;10.10;76.90;;;;;;5113908;28;20173;-66
2021/05/25 05:30:17;;;;;;;0.10;0.10;;;10.10;76.90;;;;;;5113833;28;20121;-68
2021/05/25 05:32:44;;;;;;;0.00;0.00;;;10.10;76.90;;;;;;5113545;28;20096;-66
2021/05/25 05:35:10;;;;;;;0.10;0.10;;;10.10;77.00;;;;;;5113281;28;20055;-66
2021/05/25 05:37:37;;;;;;;0.10;0.10;;;10.10;76.90;;;;;;5113606;28;20575;-66
2021/05/25 05:40:05;;;;;;;0.10;0.10;;;10.10;76.90;;;;;;5112352;28;20422;-66
2021/05/25 05:42:32;;;;;;;0.00;0.00;;;10.20;77.00;;;;;;5112151;28;20095;-66
2021/05/25 05:44:58;;;;;;;0.10;0.10;;;10.20;77.10;;;;;;5113136;28;20065;-66
2021/05/25 05:47:24;;;;;;;0.10;0.10;;;10.20;77.10;;;;;;5113289;28;20124;-66
2021/05/25 05:49:51;;;;;;;0.05;0.05;;;10.20;77.10;;;;;;5112948;28;20574;-66
2021/05/25 05:52:17;;;;;;;0.10;0.10;;;10.20;77.10;;;;;;5113113;28;20495;-67
2021/05/25 05:54:43;;;;;;;0.10;0.10;;;10.20;78.20;;;;;;5112917;28;20079;-67
2021/05/25 05:57:10;;;;;;;0.00;0.00;;;10.30;77.20;;;;;;5112837;28;20100;-67
2021/05/25 05:59:37;;;;;;;0.08;0.08;;;10.30;77.30;;;;;;5110879;28;20079;-68
2021/05/25 06:02:03;;;;;;;0.00;0.00;;;10.30;77.30;;;;;;5114124;28;20052;-66
2021/05/25 06:04:30;;;;;;;0.05;0.05;;;10.40;77.40;;;;;;5109826;28;20043;-66
2021/05/25 06:06:56;;;;;;;0.08;0.08;;;10.40;77.40;;;;;;5113745;28;20128;-66
2021/05/25 06:09:22;;;;;;;0.10;0.10;;;10.40;77.50;;;;;;5113250;28;20173;-66
2021/05/25 06:11:52;;;;;;;0.10;0.10;;;10.40;77.50;;;;;;5112219;28;20124;-66
2021/05/25 06:14:19;;;;;;;0.10;0.10;;;10.50;77.70;;;;;;5112216;28;20490;-69
2021/05/25 06:16:45;;;;;;;0.00;0.00;;;10.60;77.90;;;;;;5111879;28;20567;-69
2021/05/25 06:19:11;;;;;;;0.10;0.10;;;10.60;78.10;;;;;;5112244;28;20039;-69
2021/05/25 06:21:38;;;;;;;0.00;0.00;;;10.60;78.20;;;;;;5112701;28;20048;-68
2021/05/25 06:24:04;;;;;;;0.00;0.00;;;10.70;79.20;;;;;;5112444;28;20172;-67
2021/05/25 06:26:30;;;;;;;0.00;0.00;;;10.70;78.80;;;;;;5112434;28;20085;-67
2021/05/25 06:28:57;;;;;;;0.10;0.10;;;10.80;78.70;;;;;;5112605;28;20047;-66
2021/05/25 06:31:23;;;;;;;0.00;0.00;;;10.90;78.40;;;;;;5112832;28;20048;-66
2021/05/25 06:33:49;;;;;;;0.10;0.10;;;10.90;78.20;;;;;;5112364;28;20506;-66
2021/05/25 06:36:16;;;;;;;0.00;0.00;;;11.00;78.40;;;;;;5112132;28;20134;-66
2021/05/25 06:38:42;;;;;;;0.10;0.10;;;11.00;78.40;;;;;;5112240;28;20126;-66
2021/05/25 06:41:08;;;;;;;0.08;0.08;;;11.00;78.30;;;;;;5111461;28;20189;-66
2021/05/25 06:43:34;;;;;;;0.10;0.10;;;11.00;78.70;;;;;;5111918;28;20123;-66
2021/05/25 06:46:01;;;;;;;0.10;0.10;;;11.10;78.80;;;;;;5111997;28;20134;-71
2021/05/25 06:48:27;;;;;;;0.03;0.03;;;11.10;78.90;;;;;;5111963;28;20088;-72
2021/05/25 06:50:53;;;;;;;0.00;0.00;;;11.20;78.70;;;;;;5112219;28;20143;-71
2021/05/25 06:53:19;;;;;;;0.10;0.10;;;11.20;78.70;;;;;;5111312;28;20079;-72
2021/05/25 06:55:46;;;;;;;0.10;0.10;;;11.30;78.50;;;;;;5106768;28;20116;-70
2021/05/25 06:58:12;;;;;;;0.10;0.10;;;11.40;78.30;;;;;;5113914;27;20047;-69
2021/05/25 07:00:39;;;;;;;0.10;0.10;;;11.50;78.00;;;;;;5113660;27;20095;-69
2021/05/25 07:03:05;;;;;;;0.10;0.10;;;11.60;77.70;;;;;;5112313;27;20044;-69
2021/05/25 07:05:31;;;;;;;0.00;0.00;;;11.70;77.30;;;;;;5112193;28;20051;-69
2021/05/25 07:07:58;;;;;;;0.00;0.00;;;11.70;76.90;;;;;;5114411;27;20118;-69
2021/05/25 07:10:24;;;;;;;0.00;0.00;;;11.80;76.80;;;;;;5111722;28;20043;-69
2021/05/25 07:12:51;;;;;;;0.10;0.10;;;11.90;76.70;;;;;;5110938;28;20105;-71
2021/05/25 07:15:17;;;;;;;0.00;0.00;;;11.90;76.30;;;;;;5118226;27;20046;-71
2021/05/25 07:17:45;;;;;;;0.00;0.00;;;12.00;76.20;;;;;;5109986;28;20051;-70
2021/05/25 07:20:12;;;;;;;0.00;0.00;;;12.00;76.50;;;;;;5111169;28;20047;-70
2021/05/25 07:22:38;;;;;;;0.08;0.08;;;12.10;76.10;;;;;;5110945;28;20043;-70
2021/05/25 07:25:05;;;;;;;0.10;0.10;;;12.10;76.00;;;;;;5111062;28;20170;-70
2021/05/25 07:27:31;;;;;;;0.00;0.00;;;12.20;75.80;;;;;;5100013;28;20040;-70
2021/05/25 07:29:58;;;;;;;0.00;0.00;;;12.30;75.50;;;;;;5112575;28;20050;-70
2021/05/25 07:32:24;;;;;;;0.00;0.00;;;12.30;75.20;;;;;;5113732;28;20628;-70
2021/05/25 07:34:50;;;;;;;0.00;0.00;;;12.40;75.00;;;;;;5111885;28;20379;-70
2021/05/25 07:37:17;;;;;;;0.00;0.00;;;12.50;74.80;;;;;;5112279;28;20047;-71
2021/05/25 07:39:43;;;;;;;0.10;0.10;;;12.60;74.90;;;;;;5112213;28;20509;-71
2021/05/25 07:42:09;;;;;;;0.00;0.00;;;12.60;74.60;;;;;;5112285;28;20047;-70
2021/05/25 07:44:36;;;;;;;0.00;0.00;;;12.80;74.30;;;;;;5111601;28;20046;-71
2021/05/25 07:47:02;;;;;;;0.00;0.00;;;12.80;73.90;;;;;;5111459;28;20134;-72
2021/05/25 07:49:28;;;;;;;0.00;0.00;;;12.90;73.70;;;;;;5111626;28;20122;-71
2021/05/25 07:51:56;;;;;;;0.10;0.10;;;13.00;73.80;;;;;;5111701;28;20138;-70
2021/05/25 07:54:23;;;;;;;0.00;0.00;;;13.10;73.70;;;;;;5112180;28;20048;-73
2021/05/25 07:56:49;;;;;;;0.00;0.00;;;13.20;72.90;;;;;;5112180;28;20088;-71
2021/05/25 07:59:15;;;;;;;0.00;0.00;;;13.30;72.40;;;;;;5111246;28;20127;-70
2021/05/25 08:01:42;;;;;;;0.00;0.00;;;13.40;72.10;;;;;;5112132;28;20035;-71
2021/05/25 08:04:08;;;;;;;0.00;0.00;;;13.50;72.00;;;;;;5094965;28;20039;-71
2021/05/25 08:06:35;;;;;;;0.00;0.00;;;13.60;71.30;;;;;;5118013;27;20071;-71
2021/05/25 08:09:03;;;;;;;0.00;0.00;;;13.70;70.90;;;;;;5113733;28;20562;-71
2021/05/25 08:11:30;;;;;;;0.00;0.00;;;13.80;70.80;;;;;;5113417;28;20050;-71
2021/05/25 08:13:57;;;;;;;0.10;0.10;;;14.00;70.50;;;;;;5112427;28;20452;-73
2021/05/25 08:16:27;;;;;;;0.00;0.00;;;14.10;70.00;;;;;;5111245;28;20044;-70
2021/05/25 08:21:20;;;;;;;0.00;0.00;;;14.50;69.40;;;;;;5114130;28;19923;-69
2021/05/25 08:23:46;;;;;;;0.00;0.00;;;14.80;69.00;;;;;;5113300;28;20123;-69
2021/05/25 08:26:13;;;;;;;0.00;0.00;;;15.00;68.00;;;;;;5114998;28;20130;-68
2021/05/25 08:28:39;;;;;;;0.00;0.00;;;15.10;67.40;;;;;;5114146;28;20057;-69
2021/05/25 08:31:06;;;;;;;0.00;0.00;;;15.40;66.40;;;;;;5114147;28;20154;-70
2021/05/25 08:33:32;;;;;;;0.00;0.00;;;15.40;65.50;;;;;;5110939;28;20058;-71
2021/05/25 08:35:59;;;;;;;0.00;0.00;;;15.30;64.30;;;;;;5113676;28;20475;-70
2021/05/25 08:38:25;;;;;;;0.00;0.00;;;15.20;64.60;;;;;;5114689;28;20047;-69
2021/05/25 08:40:54;;;;;;;0.00;0.00;;;15.00;65.10;;;;;;5113388;28;20047;-69
2021/05/25 08:43:22;;;;;;;0.00;0.00;;;14.80;65.60;;;;;;5113540;28;20055;-69
2021/05/25 08:45:49;;;;;;;0.00;0.00;;;14.70;65.90;;;;;;5113165;28;20040;-69
2021/05/25 08:48:15;;;;;;;0.00;0.00;;;14.50;65.70;;;;;;5113581;28;20142;-69
2021/05/25 08:50:42;;;;;;;0.00;0.00;;;14.50;66.00;;;;;;5113634;28;20627;-69
2021/05/25 08:53:09;;;;;;;0.00;0.00;;;14.40;66.00;;;;;;5112570;28;20073;-69
2021/05/25 08:55:39;;;;;;;0.10;0.10;;;14.30;66.20;;;;;;5113156;28;20120;-68
2021/05/25 08:58:19;;;;;;;0.00;0.00;;;14.30;66.20;;;;;;5110734;28;20518;-69
2021/05/25 09:01:21;;;;;;;0.10;0.10;;;14.30;66.30;;;;;;5112094;28;20055;-69
2021/05/25 09:07:15;;;;;;;0.00;0.00;;;14.10;65.90;;;;;;5113139;27;20043;-70
2021/05/25 09:09:58;;;;;;;0.00;0.00;;;14.00;66.30;;;;;;5110400;28;20055;-70
2021/05/25 09:12:54;;;;;;;0.00;0.00;;;13.90;67.30;;;;;;5113212;28;20551;-70
2021/05/25 09:15:48;;;;;;;0.00;0.00;;;13.80;66.20;;;;;;5107578;28;20054;-70
2021/05/25 09:18:29;;;;;;;0.00;0.00;;;13.90;66.60;;;;;;5091684;28;20493;-69
2021/05/25 09:21:28;;;;;;;0.00;0.00;;;13.90;66.30;;;;;;5112237;28;20083;-70
2021/05/25 09:23:59;;;;;;;0.00;0.00;;;13.80;66.20;;;;;;5112405;28;20502;-69
2021/05/25 09:26:43;;;;;;;0.00;0.00;;;13.90;66.30;;;;;;5112095;28;20035;-70
2021/05/25 09:29:38;;;;;;;0.00;0.00;;;13.90;66.60;;;;;;5112367;28;20115;-70
2021/05/25 09:32:09;;;;;;;0.00;0.00;;;13.90;66.30;;;;;;5109600;28;20035;-69
2021/05/25 09:34:35;;;;;;;;;;;14.00;66.10;;;;;;5113233;28;20070;-68
2021/05/25 09:37:08;;;;;;;0.00;0.00;;;14.00;65.50;;;;;;5112851;28;19920;-69
2021/05/25 09:39:53;;;;;;;0.00;0.00;;;14.00;65.30;;;;;;5092714;28;20055;-68
2021/05/25 09:42:20;;;;;;;0.00;0.00;;;14.00;65.30;;;;;;5109581;28;20074;-68
2021/05/25 09:45:17;;;;;;;0.00;0.00;;;14.00;65.70;;;;;;5113211;28;20063;-67
2021/05/25 09:47:52;;;;;;;0.00;0.00;;;14.00;65.80;;;;;;5112762;28;20050;-67
2021/05/25 09:50:33;;;;;;;0.00;0.00;;;14.00;66.10;;;;;;5112722;28;20058;-67
2021/05/25 09:53:29;;;;;;;0.00;0.00;;;14.00;66.70;;;;;;5100440;28;20059;-68
2021/05/25 09:56:00;;;;;;;0.00;0.00;;;14.00;66.20;;;;;;5112525;28;20036;-68
2021/05/25 09:58:39;;;;;;;0.03;0.03;;;14.10;66.00;;;;;;5111487;28;20111;-68
2021/05/25 10:01:14;;;;;;;0.00;0.00;;;14.00;65.70;;;;;;5112176;28;20069;-68
2021/05/25 10:03:57;;;;;;;0.00;0.00;;;14.10;65.60;;;;;;5112227;28;20040;-69
2021/05/25 10:06:25;;;;;;;0.08;0.08;;;14.10;65.90;;;;;;5113434;27;20040;-68
2021/05/25 10:08:55;;;;;;;0.00;0.00;;;14.10;65.60;;;;;;5112338;28;20059;-69
2021/05/25 10:11:22;;;;;;;0.00;0.00;;;14.20;65.50;;;;;;5111839;27;20075;-69
2021/05/25 10:13:50;;;;;;;0.00;0.00;;;14.30;65.00;;;;;;5087571;28;20520;-69
2021/05/25 10:16:22;;;;;;;0.00;0.00;;;14.30;64.70;;;;;;5090735;28;20044;-69
2021/05/25 10:19:13;;;;;;;0.00;0.00;;;14.30;64.70;;;;;;5090706;28;20052;-69
2021/05/25 10:21:50;;;;;;;0.00;0.00;;;14.40;64.40;;;;;;5088896;28;20056;-68
2021/05/25 10:24:28;;;;;;;0.00;0.00;;;14.40;63.60;;;;;;5088466;28;20123;-69
2021/05/25 10:26:57;;;;;;;0.00;0.00;;;14.40;63.40;;;;;;5089694;28;20132;-69
2021/05/25 10:29:24;;;;;;;0.00;0.00;;;14.50;64.50;;;;;;5092824;28;20054;-69
2021/05/25 10:32:04;;;;;;;0.00;0.00;;;14.60;62.80;;;;;;5092389;28;20051;-69
2021/05/25 10:34:34;;;;;;;0.00;0.00;;;14.60;62.00;;;;;;5086142;28;20123;-70
2021/05/25 10:37:03;;;;;;;0.00;0.00;;;14.60;61.90;;;;;;5083734;28;20463;-70
2021/05/25 10:39:36;;;;;;;0.00;0.00;;;14.50;61.50;;;;;;5091492;28;20517;-70
2021/05/25 10:42:27;;;;;;;0.00;0.00;;;14.50;61.30;;;;;;5087887;28;20058;-70
2021/05/25 10:45:09;;;;;;;0.00;0.00;;;14.40;61.60;;;;;;5083668;28;20498;-69
2021/05/25 10:47:58;;;;;;;0.00;0.00;;;14.40;62.10;;;;;;5092707;28;20040;-71
2021/05/25 10:50:30;;;;;;;0.00;0.00;;;14.30;62.10;;;;;;5091402;28;20043;-69
2021/05/25 10:53:03;;;;;;;0.00;0.00;;;14.20;62.00;;;;;;5092095;28;20044;-69
2021/05/25 10:55:33;;;;;;;0.00;0.00;;;14.20;62.70;;;;;;5091204;28;20511;-69
2021/05/25 10:58:30;;;;;;;0.00;0.00;;;14.10;61.80;;;;;;5091090;28;20044;-68
2021/05/25 11:00:58;;;;;;;0.00;0.00;;;14.00;62.00;;;;;;5088914;28;20131;-69
2021/05/25 11:03:25;;;;;;;0.00;0.00;;;14.10;62.50;;;;;;5091969;28;20040;-69
2021/05/25 11:05:59;;;;;;;0.00;0.00;;;14.00;62.70;;;;;;5089330;28;20048;-69
2021/05/25 11:08:30;;;;;;;0.00;0.00;;;14.10;62.90;;;;;;5090063;28;20044;-69
2021/05/25 11:11:28;;;;;;;0.00;0.00;;;14.10;62.90;;;;;;5086702;28;20048;-68
2021/05/25 11:14:09;;;;;;;0.00;0.00;;;14.10;62.60;;;;;;5100759;28;20177;-69
2021/05/25 11:16:40;;;;;;;0.00;0.00;;;14.20;63.00;;;;;;5108197;28;20048;-70
2021/05/25 11:25:00;;;;;;;0.00;0.00;;;14.30;63.50;;;;;;5047528;28;20055;-71
2021/05/25 11:27:46;;;;;;;0.00;0.00;;;14.40;62.70;;;;;;5047751;28;20040;-70
2021/05/25 11:30:22;;;;;;;0.00;0.00;;;14.40;62.10;;;;;;5045624;28;20072;-71
2021/05/25 11:32:56;;;;;;;0.00;0.00;;;14.40;62.00;;;;;;5050267;28;20112;-71
2021/05/25 11:35:35;;;;;;;0.03;0.03;;;14.40;62.30;;;;;;5031353;28;20052;-75
2021/05/25 11:38:21;;;;;;;0.00;0.00;;;14.40;62.00;;;;;;5661564;22;21012;-77
2021/05/25 11:40:47;;;;;;;0.00;0.00;;;14.50;61.70;;;;;;5027522;28;20088;-73
2021/05/25 11:43:14;;;;;;;0.00;0.00;;;14.50;61.20;;;;;;5029249;28;20128;-70
2021/05/25 11:45:43;;;;;;;0.00;0.00;;;14.50;60.50;;;;;;5029607;28;20466;-73
2021/05/25 11:48:22;;;;;;;;;;;14.60;60.70;;;;;;5031423;28;20037;-72
2021/05/25 11:51:08;;;;;;;0.00;0.00;;;14.70;60.70;;;;;;5029587;28;20300;-72
2021/05/25 11:53:46;;;;;;;0.00;0.00;;;14.70;60.80;;;;;;5029726;28;20038;-70
2021/05/25 11:56:13;;;;;;;0.00;0.00;;;14.70;60.40;;;;;;5027968;28;20397;-69
2021/05/25 11:58:40;;;;;;;0.00;0.00;;;14.70;61.00;;;;;;5027978;28;20056;-71
2021/05/25 12:01:30;;;;;;;0.20;0.00;;;14.60;61.30;;;;;;5029671;28;20099;-71
2021/05/25 12:04:06;;;;;;;0.00;0.00;;;14.60;61.10;;;;;;5042602;28;20055;-75
2021/05/25 12:06:59;;;;;;;0.00;0.00;;;14.50;60.90;;;;;;5028952;28;20053;-70
2021/05/25 12:09:32;;;;;;;0.00;0.00;;;14.50;61.00;;;;;;5029986;28;20053;-69
2021/05/25 12:12:08;;;;;;;0.00;0.00;;;14.60;61.30;;;;;;5029027;28;20042;-70
2021/05/25 12:14:43;;;;;;;0.00;0.00;;;14.60;61.50;;;;;;5029481;28;20077;-70
2021/05/25 12:17:09;;;;;;;0.00;0.00;;;14.70;60.40;;;;;;5029564;28;20405;-69
2021/05/25 12:20:18;;;;;;;0.00;0.00;;;14.80;60.80;;;;;;5029697;28;20139;-71
2021/05/25 12:22:54;;;;;;;0.00;0.00;;;14.90;59.70;;;;;;5030603;28;20179;-69
2021/05/25 12:25:52;;;;;;;0.00;0.00;;;15.00;59.60;;;;;;5028145;28;20042;-70
2021/05/25 12:28:31;;;;;;;0.00;0.00;;;15.00;59.40;;;;;;5015906;28;20056;-70
2021/05/25 12:31:11;;;;;;;0.00;0.00;;;15.00;59.40;;;;;;5029642;28;20038;-69
2021/05/25 12:33:47;;;;;;;0.00;0.00;;;15.00;58.90;;;;;;5027046;28;20041;-70
2021/05/25 12:36:34;;;;;;;0.00;0.00;;;15.00;58.70;;;;;;5029531;28;20091;-71
2021/05/25 12:39:09;;;;;;;0.00;0.00;;;14.90;58.70;;;;;;5011552;28;20504;-70
2021/05/25 12:41:46;;;;;;;0.00;0.00;;;14.90;58.90;;;;;;5030400;28;20046;-69
2021/05/25 12:44:39;;;;;;;0.00;0.00;;;14.90;58.90;;;;;;5030157;28;20057;-72
2021/05/25 12:47:17;;;;;;;0.00;0.00;;;14.90;59.30;;;;;;5029495;28;20045;-69
2021/05/25 12:49:51;;;;;;;0.00;0.00;;;15.00;58.70;;;;;;5030429;28;20103;-69
2021/05/25 12:52:24;;;;;;;0.00;0.00;;;15.10;58.20;;;;;;5032744;28;20546;-70
2021/05/25 12:54:53;;;;;;;0.00;0.00;;;15.10;57.60;;;;;;5033183;28;20049;-69
2021/05/25 12:57:19;;;;;;;0.00;0.00;;;15.20;56.60;;;;;;5033726;28;20118;-70
2021/05/25 13:00:01;;;;;;;0.00;0.00;;;15.20;55.50;;;;;;5033567;28;20115;-71
2021/05/25 13:02:48;;;;;;;0.08;0.08;;;15.20;55.90;;;;;;5032835;28;20060;-71
2021/05/25 13:05:22;;;;;;;0.03;0.03;;;15.30;56.30;;;;;;5029564;28;20076;-71
2021/05/25 13:08:05;;;;;;;0.00;0.00;;;15.30;56.90;;;;;;5032808;28;20045;-69
2021/05/25 13:13:15;;;;;;;0.00;0.00;;;15.50;57.80;;;;;;5033884;28;20048;-70
2021/05/25 13:15:53;;;;;;;0.00;0.00;;;15.50;54.90;;;;;;5033884;28;20080;-69
2021/05/25 13:18:39;;;;;;;0.00;0.00;;;15.60;54.80;;;;;;5034502;28;20148;-69